Time;durP1;ratioP1;P1;durP2;ratioP2;P2;SDS_P1;SDS_P2;PMS_P1;PMS_P2;Temp;Humidity;BMP_temperature;BMP_pressure;BME280_temperature;BME280_humidity;BME280_pressure;Samples;Min_cycle;Max_cycle;Signal;HPM_P1;HPM_P2
2022/11/03 00:01:05;;;;;;;11.93;6.97;;;;;;;;;;4958509;28;20231;-62
2022/11/03 00:03:32;;;;;;;8.90;6.57;;;;;;;;;;4969135;28;20211;-63
2022/11/03 00:06:06;;;;;;;10.23;6.40;;;;;;;;;;4948887;28;21341;-63
2022/11/03 00:08:40;;;;;;;7.97;6.43;;;;;;;;;;4954951;28;20381;-63
2022/11/03 00:11:12;;;;;;;10.07;6.90;;;;;;;;;;4955752;28;20215;-63
2022/11/03 00:13:40;;;;;;;6.30;4.47;;;;;;;;;;4966334;28;20326;-63
2022/11/03 00:16:08;;;;;;;4.07;3.30;;;;;;;;;;4960023;28;20218;-63
2022/11/03 00:18:36;;;;;;;4.13;3.67;;;;;;;;;;4950372;28;20204;-63
2022/11/03 00:21:05;;;;;;;6.17;4.43;;;;;;;;;;4951177;28;20240;-63
2022/11/03 00:23:33;;;;;;;3.50;2.80;;;;;;;;;;4949905;28;20212;-63
2022/11/03 00:26:10;;;;;;;3.40;2.80;;;;;;;;;;4951259;28;20208;-62
2022/11/03 00:28:38;;;;;;;5.10;3.70;;;;;;;;;;4967892;28;20211;-62
2022/11/03 00:31:07;;;;;;;4.33;3.13;;;;;;;;;;4958737;28;20239;-62
2022/11/03 00:33:35;;;;;;;4.13;3.50;;;;;;;;;;4956396;28;20965;-63
2022/11/03 00:36:02;;;;;;;5.00;3.40;;;;;;;;;;4958096;28;20214;-64
2022/11/03 00:38:29;;;;;;;4.70;4.17;;;;;;;;;;4972314;28;20208;-64
2022/11/03 00:40:58;;;;;;;3.83;3.43;;;;;;;;;;4990637;28;20770;-62
2022/11/03 00:43:26;;;;;;;5.37;4.43;;;;;;;;;;4963212;28;20327;-63
2022/11/03 00:45:54;;;;;;;2.93;2.73;;;;;;;;;;4976707;28;20330;-63
2022/11/03 00:48:28;;;;;;;2.80;2.60;;;;;;;;;;4970608;28;20208;-63
2022/11/03 00:51:09;;;;;;;2.40;2.30;;;;;;;;;;4978547;28;20262;-63
2022/11/03 00:53:47;;;;;;;4.47;2.90;;;;;;;;;;4968383;28;20720;-63
2022/11/03 00:56:19;;;;;;;3.40;3.00;;;;;;;;;;4969577;28;20241;-63
2022/11/03 00:58:46;;;;;;;3.87;3.30;;;;;;;;;;4972807;28;20617;-64
2022/11/03 01:01:14;;;;;;;8.13;4.43;;;;;;;;;;4972486;28;20715;-63
2022/11/03 01:06:49;;;;;;;5.33;3.93;;;;;;;;;;4977173;28;20203;-63
2022/11/03 01:09:30;;;;;;;4.13;3.73;;;;;;;;;;4951267;28;20233;-63
2022/11/03 01:11:57;;;;;;;7.67;4.73;;;;;;;;;;4969631;28;20207;-62
2022/11/03 01:14:30;;;;;;;6.13;5.20;;;;;;;;;;4997860;28;20250;-63
2022/11/03 01:16:58;;;;;;;8.30;5.50;;;;;;;;;;4966304;28;20206;-63
2022/11/03 01:19:26;;;;;;;9.93;6.47;;;;;;;;;;4959384;28;20247;-63
2022/11/03 01:21:54;;;;;;;6.80;5.13;;;;;;;;;;4966430;28;21227;-63
2022/11/03 01:24:22;;;;;;;7.97;5.97;;;;;;;;;;4964611;28;20211;-64
2022/11/03 01:26:49;;;;;;;8.57;5.97;;;;;;;;;;4951394;28;20220;-63
2022/11/03 01:29:17;;;;;;;6.77;5.30;;;;;;;;;;4952477;28;20322;-64
2022/11/03 01:31:44;;;;;;;5.80;4.40;;;;;;;;;;4952782;28;20211;-63
2022/11/03 01:34:14;;;;;;;4.80;3.40;;;;;;;;;;4953247;28;20242;-64
2022/11/03 01:36:42;;;;;;;4.00;3.60;;;;;;;;;;4967244;28;20290;-62
2022/11/03 01:39:14;;;;;;;5.00;4.20;;;;;;;;;;4974492;28;20578;-63
2022/11/03 01:41:42;;;;;;;4.20;3.80;;;;;;;;;;4971549;28;20207;-65
2022/11/03 01:44:10;;;;;;;5.20;4.00;;;;;;;;;;4973329;28;20302;-62
2022/11/03 01:46:56;;;;;;;7.00;3.30;;;;;;;;;;4969703;28;20234;-64
2022/11/03 01:49:36;;;;;;;3.57;3.27;;;;;;;;;;4962357;28;20326;-63
2022/11/03 01:52:14;;;;;;;3.30;2.93;;;;;;;;;;4967711;28;20220;-64
2022/11/03 01:54:44;;;;;;;3.77;3.03;;;;;;;;;;4957026;28;20238;-63
2022/11/03 01:57:14;;;;;;;5.17;3.63;;;;;;;;;;4958489;28;20210;-62
2022/11/03 01:59:43;;;;;;;4.53;3.50;;;;;;;;;;4952990;28;20355;-62
2022/11/03 02:02:11;;;;;;;4.47;3.60;;;;;;;;;;4964287;28;20216;-61
2022/11/03 02:04:39;;;;;;;4.17;3.87;;;;;;;;;;4968895;28;20457;-63
2022/11/03 02:07:27;;;;;;;6.17;3.73;;;;;;;;;;4948475;28;20212;-62
2022/11/03 02:09:55;;;;;;;4.80;4.30;;;;;;;;;;4950896;28;20297;-62
2022/11/03 02:12:22;;;;;;;6.33;4.70;;;;;;;;;;4948431;28;21031;-64
2022/11/03 02:14:54;;;;;;;6.10;4.30;;;;;;;;;;4952638;28;20234;-62
2022/11/03 02:17:22;;;;;;;11.27;5.70;;;;;;;;;;4953082;28;20203;-64
2022/11/03 02:20:04;;;;;;;9.27;5.20;;;;;;;;;;4945299;28;20861;-64
2022/11/03 02:22:40;;;;;;;10.80;4.30;;;;;;;;;;4970155;28;20258;-64
2022/11/03 02:25:11;;;;;;;6.27;4.60;;;;;;;;;;4950593;28;20211;-63
2022/11/03 02:27:40;;;;;;;6.43;4.83;;;;;;;;;;4955965;28;20305;-63
2022/11/03 02:30:09;;;;;;;7.40;5.20;;;;;;;;;;4949042;28;20698;-64
2022/11/03 02:32:41;;;;;;;6.03;3.80;;;;;;;;;;4956812;28;20885;-63
2022/11/03 02:35:13;;;;;;;7.77;4.87;;;;;;;;;;4953966;28;20214;-63
2022/11/03 02:37:44;;;;;;;10.13;5.80;;;;;;;;;;4951054;28;20243;-64
2022/11/03 02:40:14;;;;;;;6.27;4.50;;;;;;;;;;4953098;28;21048;-64
2022/11/03 02:42:42;;;;;;;7.10;4.33;;;;;;;;;;4954932;28;20334;-63
2022/11/03 02:45:11;;;;;;;4.87;3.30;;;;;;;;;;4936915;28;1186756;-64
2022/11/03 02:47:44;;;;;;;4.33;3.10;;;;;;;;;;4981020;28;20219;-63
2022/11/03 02:50:12;;;;;;;5.00;4.50;;;;;;;;;;4969725;28;20311;-64
2022/11/03 02:52:41;;;;;;;7.30;5.20;;;;;;;;;;4980361;28;20211;-64
2022/11/03 02:55:18;;;;;;;5.70;3.83;;;;;;;;;;4963790;28;20234;-63
2022/11/03 02:57:58;;;;;;;26.67;14.00;;;;;;;;;;4961174;28;20218;-64
2022/11/03 03:00:27;;;;;;;18.53;10.70;;;;;;;;;;4962961;28;20242;-64
2022/11/03 03:02:58;;;;;;;15.87;8.47;;;;;;;;;;4969010;28;20214;-64
2022/11/03 03:05:29;;;;;;;17.57;6.17;;;;;;;;;;4961789;28;20289;-61
2022/11/03 03:07:59;;;;;;;27.83;7.70;;;;;;;;;;4957601;28;20326;-62
2022/11/03 03:10:29;;;;;;;30.63;7.77;;;;;;;;;;4954376;28;20710;-62
2022/11/03 03:12:58;;;;;;;28.83;12.53;;;;;;;;;;4955265;28;20877;-64
2022/11/03 03:15:30;;;;;;;19.67;10.97;;;;;;;;;;4953456;28;21153;-62
2022/11/03 03:18:10;;;;;;;19.27;11.83;;;;;;;;;;4964168;28;20207;-65
2022/11/03 03:20:41;;;;;;;17.47;10.57;;;;;;;;;;4972885;28;20227;-63
2022/11/03 03:23:20;;;;;;;16.23;10.17;;;;;;;;;;4955497;28;20300;-63
2022/11/03 03:26:02;;;;;;;14.93;8.73;;;;;;;;;;4957915;28;20881;-62
2022/11/03 03:28:30;;;;;;;6.30;5.07;;;;;;;;;;4976739;28;20212;-63
2022/11/03 03:30:59;;;;;;;9.17;5.87;;;;;;;;;;4990396;28;20228;-63
2022/11/03 03:33:28;;;;;;;8.60;6.23;;;;;;;;;;4974695;28;20694;-64
2022/11/03 03:35:55;;;;;;;10.03;7.10;;;;;;;;;;4970228;28;20293;-62
2022/11/03 03:38:25;;;;;;;11.37;6.43;;;;;;;;;;4975884;28;20925;-64
2022/11/03 03:40:55;;;;;;;8.87;5.90;;;;;;;;;;4993684;28;20220;-63
2022/11/03 03:43:23;;;;;;;10.57;5.30;;;;;;;;;;4970548;28;20314;-63
2022/11/03 03:45:52;;;;;;;7.97;5.20;;;;;;;;;;4972188;28;20303;-63
2022/11/03 03:48:19;;;;;;;8.30;5.23;;;;;;;;;;4972845;28;20203;-63
2022/11/03 03:50:48;;;;;;;6.30;4.93;;;;;;;;;;4979300;28;20319;-65
2022/11/03 03:53:17;;;;;;;5.10;4.47;;;;;;;;;;4974691;28;20298;-63
2022/11/03 03:55:47;;;;;;;4.40;3.83;;;;;;;;;;4972952;28;20234;-63
2022/11/03 03:58:15;;;;;;;6.97;4.23;;;;;;;;;;4974595;28;20564;-63
2022/11/03 04:00:43;;;;;;;40.17;16.37;;;;;;;;;;4977497;28;20767;-64
2022/11/03 04:03:29;;;;;;;18.77;9.50;;;;;;;;;;4974671;28;20215;-62
2022/11/03 04:05:56;;;;;;;6.07;5.37;;;;;;;;;;4976007;28;20199;-62
2022/11/03 04:08:24;;;;;;;5.70;4.13;;;;;;;;;;4972745;28;20338;-62
2022/11/03 04:22:17;;;;;;;4.87;4.37;;;;;;;;;;4992523;28;20231;-63
2022/11/03 04:24:48;;;;;;;8.17;5.73;;;;;;;;;;4970762;28;20207;-63
2022/11/03 04:27:20;;;;;;;8.10;5.50;;;;;;;;;;4972150;28;20666;-62
2022/11/03 04:29:48;;;;;;;9.20;5.70;;;;;;;;;;4972247;28;20330;-63
2022/11/03 04:32:17;;;;;;;8.57;6.10;;;;;;;;;;4984574;28;20229;-64
2022/11/03 04:34:47;;;;;;;7.60;5.37;;;;;;;;;;4979663;28;20705;-61
2022/11/03 04:37:15;;;;;;;8.73;6.60;;;;;;;;;;4975057;28;20254;-63
2022/11/03 04:39:42;;;;;;;6.00;4.80;;;;;;;;;;4974790;28;20242;-63
2022/11/03 04:42:14;;;;;;;3.23;3.03;;;;;;;;;;4970431;28;20571;-64
2022/11/03 04:44:42;;;;;;;3.83;3.43;;;;;;;;;;4976097;28;20211;-62
2022/11/03 04:47:11;;;;;;;3.73;3.43;;;;;;;;;;4983504;28;20290;-64
2022/11/03 04:49:38;;;;;;;4.40;4.00;;;;;;;;;;4988671;28;20327;-63
2022/11/03 04:52:12;;;;;;;6.17;4.30;;;;;;;;;;4983265;28;20255;-63
2022/11/03 04:54:39;;;;;;;6.03;5.13;;;;;;;;;;4988758;28;20318;-62
2022/11/03 04:57:12;;;;;;;5.50;4.93;;;;;;;;;;4985649;28;20208;-63
2022/11/03 04:59:40;;;;;;;4.73;4.20;;;;;;;;;;4988636;28;20921;-63
2022/11/03 05:02:10;;;;;;;6.17;4.30;;;;;;;;;;4982574;28;20294;-63
2022/11/03 05:04:37;;;;;;;6.20;4.80;;;;;;;;;;4983820;28;20310;-64
2022/11/03 05:07:21;;;;;;;7.87;6.33;;;;;;;;;;4975707;28;20218;-63
2022/11/03 05:09:48;;;;;;;8.30;6.63;;;;;;;;;;4980310;28;20314;-63
2022/11/03 05:12:16;;;;;;;9.63;6.20;;;;;;;;;;4970388;28;20299;-63
2022/11/03 05:14:43;;;;;;;10.17;5.73;;;;;;;;;;4977574;28;20230;-63
2022/11/03 05:17:18;;;;;;;7.47;5.93;;;;;;;;;;4964181;28;20358;-64
2022/11/03 05:19:45;;;;;;;7.40;5.80;;;;;;;;;;4976508;28;20309;-63
2022/11/03 05:22:16;;;;;;;9.43;6.40;;;;;;;;;;4978071;28;20253;-63
2022/11/03 05:24:43;;;;;;;8.97;6.40;;;;;;;;;;4958814;28;20834;-63
2022/11/03 05:27:15;;;;;;;9.33;6.73;;;;;;;;;;4960234;28;20215;-63
2022/11/03 05:29:43;;;;;;;7.27;5.77;;;;;;;;;;4960628;28;20310;-63
2022/11/03 05:32:12;;;;;;;7.73;6.17;;;;;;;;;;4970430;28;20301;-62
2022/11/03 05:34:43;;;;;;;6.77;6.00;;;;;;;;;;4970068;28;20532;-63
2022/11/03 05:37:10;;;;;;;8.90;6.07;;;;;;;;;;4967346;28;20207;-63
2022/11/03 05:39:44;;;;;;;15.90;10.17;;;;;;;;;;4971028;28;20239;-63
2022/11/03 05:42:23;;;;;;;14.20;10.50;;;;;;;;;;4970034;28;20295;-63
2022/11/03 05:44:51;;;;;;;13.73;9.37;;;;;;;;;;4966956;28;20199;-63
2022/11/03 05:47:27;;;;;;;12.33;8.50;;;;;;;;;;4966440;28;20215;-63
2022/11/03 05:50:00;;;;;;;9.23;6.70;;;;;;;;;;4973086;28;20313;-63
2022/11/03 05:52:27;;;;;;;10.23;6.83;;;;;;;;;;4970736;28;20334;-62
2022/11/03 05:54:57;;;;;;;10.00;7.90;;;;;;;;;;4971294;28;20339;-64
2022/11/03 05:57:25;;;;;;;9.20;7.07;;;;;;;;;;4965851;28;20214;-63
2022/11/03 05:59:52;;;;;;;9.87;8.20;;;;;;;;;;4969012;28;20230;-62
2022/11/03 06:02:40;;;;;;;10.23;7.60;;;;;;;;;;4965079;28;20212;-63
2022/11/03 06:05:17;;;;;;;9.83;7.83;;;;;;;;;;4968690;28;20286;-63
2022/11/03 06:07:44;;;;;;;13.03;8.23;;;;;;;;;;4960385;28;20215;-63
2022/11/03 06:10:30;;;;;;;14.43;9.83;;;;;;;;;;4983334;28;20234;-62
2022/11/03 06:13:18;;;;;;;14.37;7.80;;;;;;;;;;4969681;28;20839;-63
2022/11/03 06:15:47;;;;;;;15.87;8.27;;;;;;;;;;4971372;28;20238;-63
2022/11/03 06:18:16;;;;;;;10.27;7.77;;;;;;;;;;4982216;28;20285;-62
2022/11/03 06:20:48;;;;;;;12.87;8.50;;;;;;;;;;4968718;28;20319;-62
2022/11/03 06:23:16;;;;;;;11.93;9.13;;;;;;;;;;4962643;28;20210;-61
2022/11/03 06:25:43;;;;;;;9.93;8.93;;;;;;;;;;4965765;28;20287;-64
2022/11/03 06:28:16;;;;;;;13.67;9.37;;;;;;;;;;4971646;28;20238;-63
2022/11/03 06:30:44;;;;;;;10.70;9.60;;;;;;;;;;4952131;28;20235;-63
2022/11/03 06:33:18;;;;;;;10.93;9.47;;;;;;;;;;4975780;28;20239;-63
2022/11/03 06:35:45;;;;;;;20.57;9.90;;;;;;;;;;4964846;28;20311;-63
2022/11/03 06:38:21;;;;;;;22.13;10.13;;;;;;;;;;4958034;28;20211;-62
2022/11/03 06:40:52;;;;;;;11.27;9.70;;;;;;;;;;4957735;28;20884;-63
2022/11/03 06:43:21;;;;;;;19.17;10.17;;;;;;;;;;4981940;28;20222;-61
2022/11/03 06:45:50;;;;;;;17.40;10.30;;;;;;;;;;4968316;28;20234;-63
2022/11/03 06:48:21;;;;;;;14.47;11.27;;;;;;;;;;4967102;28;20799;-63
2022/11/03 06:50:48;;;;;;;23.87;13.13;;;;;;;;;;4951502;28;20331;-63
2022/11/03 06:53:26;;;;;;;33.40;12.00;;;;;;;;;;4961855;28;20720;-62
2022/11/03 06:55:54;;;;;;;22.77;11.67;;;;;;;;;;4995857;28;20223;-63
2022/11/03 06:58:32;;;;;;;27.20;13.43;;;;;;;;;;4983153;28;20240;-63
2022/11/03 07:01:01;;;;;;;21.10;9.23;;;;;;;;;;4977997;28;20739;-64
2022/11/03 07:03:32;;;;;;;16.73;8.80;;;;;;;;;;4983221;28;20204;-62
2022/11/03 07:06:01;;;;;;;14.53;8.80;;;;;;;;;;4994823;28;20465;-62
2022/11/03 07:08:35;;;;;;;10.73;8.00;;;;;;;;;;4981203;28;20211;-63
2022/11/03 07:11:22;;;;;;;11.10;9.93;;;;;;;;;;4980892;28;20231;-63
2022/11/03 07:13:51;;;;;;;14.47;11.73;;;;;;;;;;4987713;28;20235;-63
2022/11/03 07:16:23;;;;;;;14.13;12.53;;;;;;;;;;4987491;28;20273;-63
2022/11/03 07:18:51;;;;;;;10.17;9.17;;;;;;;;;;4978201;28;20235;-63
2022/11/03 07:21:24;;;;;;;13.70;10.50;;;;;;;;;;5001205;28;20495;-63
2022/11/03 07:23:52;;;;;;;18.17;9.20;;;;;;;;;;4997488;28;20749;-63
2022/11/03 07:26:19;;;;;;;28.67;8.87;;;;;;;;;;4982458;28;20375;-61
2022/11/03 07:28:47;;;;;;;12.43;8.80;;;;;;;;;;4981669;28;20203;-63
2022/11/03 07:31:22;;;;;;;12.83;8.03;;;;;;;;;;4983827;28;20282;-63
2022/11/03 07:33:50;;;;;;;22.00;7.63;;;;;;;;;;4980305;28;20680;-63
2022/11/03 07:36:22;;;;;;;16.93;7.60;;;;;;;;;;4979443;28;20808;-63
2022/11/03 07:38:55;;;;;;;17.73;14.43;;;;;;;;;;4986023;28;20503;-63
2022/11/03 07:41:24;;;;;;;22.80;17.73;;;;;;;;;;4988779;28;20626;-63
2022/11/03 07:43:58;;;;;;;31.60;22.63;;;;;;;;;;4976814;28;20207;-63
2022/11/03 07:46:26;;;;;;;30.13;22.63;;;;;;;;;;4978700;28;20262;-63
2022/11/03 07:48:58;;;;;;;19.80;15.60;;;;;;;;;;4986790;28;20677;-63
2022/11/03 07:51:29;;;;;;;18.80;13.60;;;;;;;;;;4968912;28;20298;-61
2022/11/03 07:54:12;;;;;;;14.40;11.70;;;;;;;;;;4963096;28;20310;-63
2022/11/03 07:56:49;;;;;;;9.97;8.93;;;;;;;;;;4978402;28;20215;-63
2022/11/03 07:59:19;;;;;;;9.20;8.20;;;;;;;;;;4966484;28;20318;-63
2022/11/03 08:01:53;;;;;;;107.27;54.07;;;;;;;;;;4967603;28;20640;-63
2022/11/03 08:04:24;;;;;;;33.07;19.53;;;;;;;;;;4960647;28;20240;-63
2022/11/03 08:06:51;;;;;;;13.70;11.00;;;;;;;;;;4961817;28;20210;-63
2022/11/03 08:09:20;;;;;;;12.83;11.50;;;;;;;;;;4966844;28;20227;-63
2022/11/03 08:11:47;;;;;;;9.87;8.33;;;;;;;;;;4967221;28;20208;-63
2022/11/03 08:14:14;;;;;;;8.93;8.13;;;;;;;;;;4970937;28;20338;-62
2022/11/03 08:16:41;;;;;;;9.43;8.33;;;;;;;;;;4963134;28;20295;-63
2022/11/03 08:19:09;;;;;;;12.83;9.50;;;;;;;;;;4979512;28;20343;-63
2022/11/03 08:21:36;;;;;;;14.10;9.07;;;;;;;;;;4968081;28;20203;-63
2022/11/03 08:24:05;;;;;;;12.33;9.67;;;;;;;;;;4966701;28;20229;-64
2022/11/03 08:26:32;;;;;;;10.67;9.33;;;;;;;;;;4967145;28;20213;-61
2022/11/03 08:28:59;;;;;;;10.60;9.50;;;;;;;;;;4969636;28;20202;-63
2022/11/03 08:31:27;;;;;;;11.20;10.10;;;;;;;;;;4969047;28;20527;-63
2022/11/03 08:33:54;;;;;;;10.13;9.13;;;;;;;;;;4968424;28;20451;-63
2022/11/03 08:36:21;;;;;;;11.33;8.97;;;;;;;;;;4992248;28;20329;-64
2022/11/03 08:38:49;;;;;;;10.80;9.00;;;;;;;;;;4960766;28;20770;-62
2022/11/03 08:41:16;;;;;;;11.30;10.03;;;;;;;;;;4984928;28;20228;-63
2022/11/03 08:43:44;;;;;;;13.40;9.57;;;;;;;;;;4989555;28;20294;-63
2022/11/03 08:46:11;;;;;;;12.57;10.30;;;;;;;;;;4997576;28;20274;-63
2022/11/03 08:48:44;;;;;;;16.37;11.63;;;;;;;;;;4979458;28;20420;-61
2022/11/03 08:51:12;;;;;;;19.03;12.13;;;;;;;;;;4975550;28;20323;-64
2022/11/03 08:53:44;;;;;;;21.47;14.03;;;;;;;;;;4990913;28;20208;-62
2022/11/03 08:56:12;;;;;;;19.77;15.17;;;;;;;;;;4977880;28;20239;-63
2022/11/03 08:58:43;;;;;;;13.93;11.03;;;;;;;;;;4975408;28;20222;-64
2022/11/03 09:01:10;;;;;;;10.30;9.10;;;;;;;;;;4976387;28;20227;-64
2022/11/03 09:03:38;;;;;;;10.87;8.93;;;;;;;;;;4999528;28;20210;-63
2022/11/03 09:06:05;;;;;;;9.60;8.60;;;;;;;;;;4979590;28;20218;-64
2022/11/03 09:08:33;;;;;;;9.73;8.50;;;;;;;;;;4983628;28;20219;-63
2022/11/03 09:11:20;;;;;;;9.23;8.13;;;;;;;;;;4983454;28;20213;-64
2022/11/03 09:13:48;;;;;;;10.23;9.13;;;;;;;;;;4984504;28;20211;-63
2022/11/03 09:16:15;;;;;;;10.33;8.40;;;;;;;;;;4987523;28;20696;-64
2022/11/03 09:18:44;;;;;;;10.43;8.30;;;;;;;;;;4973685;28;20211;-63
2022/11/03 09:21:13;;;;;;;10.27;8.53;;;;;;;;;;4977694;28;20278;-63
2022/11/03 09:23:41;;;;;;;9.30;8.40;;;;;;;;;;4980094;28;20600;-63
2022/11/03 09:26:08;;;;;;;10.40;9.30;;;;;;;;;;4999971;28;20743;-62
2022/11/03 09:28:35;;;;;;;12.30;9.10;;;;;;;;;;4982511;28;20294;-63
2022/11/03 09:31:03;;;;;;;9.80;8.67;;;;;;;;;;4985661;28;20239;-63
2022/11/03 09:33:30;;;;;;;10.83;8.17;;;;;;;;;;4971799;28;20212;-63
2022/11/03 09:35:58;;;;;;;8.97;8.07;;;;;;;;;;4975398;28;20386;-64
2022/11/03 09:38:25;;;;;;;9.30;8.03;;;;;;;;;;4972168;28;20204;-63
2022/11/03 09:40:52;;;;;;;12.63;8.63;;;;;;;;;;4972316;28;20846;-64
2022/11/03 09:43:20;;;;;;;13.37;8.87;;;;;;;;;;4972511;28;20331;-63
2022/11/03 09:45:47;;;;;;;16.63;8.93;;;;;;;;;;4975234;28;20215;-64
2022/11/03 09:48:15;;;;;;;13.87;9.90;;;;;;;;;;4988482;28;20212;-63
2022/11/03 09:50:42;;;;;;;13.53;9.30;;;;;;;;;;4970669;28;20228;-63
2022/11/03 09:53:11;;;;;;;13.60;8.50;;;;;;;;;;4969083;28;20219;-63
2022/11/03 09:55:39;;;;;;;9.53;7.70;;;;;;;;;;4973201;28;20246;-63
2022/11/03 09:58:14;;;;;;;10.90;8.47;;;;;;;;;;4984546;28;20709;-63
2022/11/03 10:00:41;;;;;;;13.47;8.83;;;;;;;;;;4969363;28;20233;-63
2022/11/03 10:03:14;;;;;;;12.87;7.60;;;;;;;;;;4976756;28;20274;-65
2022/11/03 10:05:45;;;;;;;11.47;7.37;;;;;;;;;;4972128;28;20215;-64
2022/11/03 10:08:18;;;;;;;8.00;6.73;;;;;;;;;;4972842;28;20204;-63
2022/11/03 10:10:49;;;;;;;12.37;7.50;;;;;;;;;;4969764;28;20768;-63
2022/11/03 10:13:36;;;;;;;10.97;6.67;;;;;;;;;;4973329;28;20243;-63
2022/11/03 10:16:06;;;;;;;10.17;6.43;;;;;;;;;;4977718;28;20235;-63
2022/11/03 10:18:34;;;;;;;9.27;6.67;;;;;;;;;;4964638;28;22934;-64
2022/11/03 10:21:05;;;;;;;8.87;6.27;;;;;;;;;;4969072;28;20364;-63
2022/11/03 10:23:33;;;;;;;10.97;7.20;;;;;;;;;;4970570;28;20295;-63
2022/11/03 10:26:11;;;;;;;9.53;6.77;;;;;;;;;;4970351;28;20218;-63
2022/11/03 10:28:39;;;;;;;7.57;6.47;;;;;;;;;;4973744;28;20215;-63
2022/11/03 10:31:17;;;;;;;8.53;5.93;;;;;;;;;;4974130;28;20670;-64
2022/11/03 10:33:52;;;;;;;11.63;7.37;;;;;;;;;;4978152;28;20281;-64
2022/11/03 10:36:20;;;;;;;9.97;6.27;;;;;;;;;;4972952;28;20229;-64
2022/11/03 10:38:47;;;;;;;10.33;6.90;;;;;;;;;;4973910;28;20290;-64
2022/11/03 10:41:16;;;;;;;10.20;6.37;;;;;;;;;;4986391;28;20354;-62
2022/11/03 10:44:04;;;;;;;10.73;6.53;;;;;;;;;;4974441;28;20307;-64
2022/11/03 10:46:32;;;;;;;8.97;5.90;;;;;;;;;;4974947;28;20252;-63
2022/11/03 10:49:18;;;;;;;10.97;6.97;;;;;;;;;;4981562;28;20235;-63
2022/11/03 10:51:51;;;;;;;11.30;7.23;;;;;;;;;;4989257;28;20214;-64
2022/11/03 10:54:20;;;;;;;15.90;6.90;;;;;;;;;;4982468;28;20312;-63
2022/11/03 10:56:49;;;;;;;9.40;6.43;;;;;;;;;;4984503;28;20699;-63
2022/11/03 10:59:18;;;;;;;8.93;7.37;;;;;;;;;;4987337;28;20219;-64
2022/11/03 11:01:46;;;;;;;10.53;6.50;;;;;;;;;;4983129;28;20242;-63
2022/11/03 11:04:17;;;;;;;9.30;6.60;;;;;;;;;;4983956;28;20211;-63
2022/11/03 11:06:45;;;;;;;8.83;6.77;;;;;;;;;;4976626;28;20487;-63
2022/11/03 11:09:14;;;;;;;10.37;6.93;;;;;;;;;;4971391;28;20290;-64
2022/11/03 11:11:58;;;;;;;9.27;6.43;;;;;;;;;;4960128;28;20257;-63
2022/11/03 11:14:26;;;;;;;9.70;6.43;;;;;;;;;;4962150;28;20760;-63
2022/11/03 11:16:58;;;;;;;9.17;7.13;;;;;;;;;;4977445;28;21591;-63
2022/11/03 11:19:27;;;;;;;8.13;6.37;;;;;;;;;;4966571;28;20700;-64
2022/11/03 11:21:54;;;;;;;7.97;6.30;;;;;;;;;;4962561;28;20367;-63
2022/11/03 11:24:40;;;;;;;10.20;6.47;;;;;;;;;;4978450;28;20199;-63
2022/11/03 11:27:26;;;;;;;8.37;5.40;;;;;;;;;;4972868;28;20355;-63
2022/11/03 11:29:53;;;;;;;7.63;5.23;;;;;;;;;;4971394;28;20297;-63
2022/11/03 11:32:36;;;;;;;6.80;5.10;;;;;;;;;;4981164;28;20277;-64
2022/11/03 11:35:04;;;;;;;6.30;5.00;;;;;;;;;;4978975;28;20295;-63
2022/11/03 11:37:33;;;;;;;6.57;4.80;;;;;;;;;;4979940;28;20210;-63
2022/11/03 11:40:00;;;;;;;8.13;3.80;;;;;;;;;;4968399;28;20231;-63
2022/11/03 11:42:28;;;;;;;5.13;3.97;;;;;;;;;;4973411;28;20579;-63
2022/11/03 11:45:02;;;;;;;7.00;4.03;;;;;;;;;;4977146;28;20284;-63
2022/11/03 11:47:40;;;;;;;6.33;4.03;;;;;;;;;;4970818;28;20221;-63
2022/11/03 11:50:08;;;;;;;5.65;4.15;;;;;;;;;;4967491;28;20222;-64
2022/11/03 11:52:42;;;;;;;8.45;4.45;;;;;;;;;;4976073;28;20227;-64
2022/11/03 11:55:21;;;;;;;6.87;4.37;;;;;;;;;;4968996;28;20655;-63
2022/11/03 11:57:49;;;;;;;8.10;5.17;;;;;;;;;;4965249;28;20473;-63
2022/11/03 12:00:37;;;;;;;8.00;5.38;;;;;;;;;;4972019;28;20232;-64
2022/11/03 12:03:05;;;;;;;6.90;4.57;;;;;;;;;;4969505;28;20218;-64
2022/11/03 12:05:34;;;;;;;6.33;4.33;;;;;;;;;;4969415;28;20225;-63
2022/11/03 12:08:02;;;;;;;4.30;3.90;;;;;;;;;;4967196;28;20328;-64
2022/11/03 12:10:30;;;;;;;6.60;4.40;;;;;;;;;;4969385;28;20243;-64
2022/11/03 12:13:00;;;;;;;5.77;4.53;;;;;;;;;;4970127;28;20299;-63
2022/11/03 12:15:46;;;;;;;8.23;4.43;;;;;;;;;;4973807;28;20231;-63
2022/11/03 12:18:33;;;;;;;7.40;4.67;;;;;;;;;;4973654;28;20305;-63
2022/11/03 12:21:10;;;;;;;9.87;5.30;;;;;;;;;;4970821;28;20231;-63
2022/11/03 12:23:47;;;;;;;9.90;5.43;;;;;;;;;;4966076;28;20219;-63
2022/11/03 12:26:37;;;;;;;15.53;6.70;;;;;;;;;;4965689;28;20289;-64
2022/11/03 12:29:04;;;;;;;9.53;6.37;;;;;;;;;;4969356;28;20229;-63
2022/11/03 12:31:33;;;;;;;7.83;6.43;;;;;;;;;;4971328;28;20214;-63
2022/11/03 12:34:03;;;;;;;12.40;7.60;;;;;;;;;;4970733;28;20223;-63
2022/11/03 12:36:30;;;;;;;7.87;6.60;;;;;;;;;;4967398;28;20251;-63
2022/11/03 12:38:57;;;;;;;10.23;6.93;;;;;;;;;;4971766;28;20683;-63
2022/11/03 12:41:25;;;;;;;7.87;6.93;;;;;;;;;;4968926;28;20629;-64
2022/11/03 12:43:54;;;;;;;8.07;6.90;;;;;;;;;;4976431;28;20310;-63
2022/11/03 12:46:22;;;;;;;7.73;6.93;;;;;;;;;;4979200;28;20216;-63
2022/11/03 12:48:49;;;;;;;7.17;6.47;;;;;;;;;;4976519;28;20420;-62
2022/11/03 12:51:17;;;;;;;9.80;7.07;;;;;;;;;;4987288;28;20260;-63
2022/11/03 12:53:45;;;;;;;9.87;6.77;;;;;;;;;;4984739;28;20669;-63
2022/11/03 12:56:13;;;;;;;11.33;7.43;;;;;;;;;;4975721;28;20231;-63
2022/11/03 12:58:40;;;;;;;12.60;7.90;;;;;;;;;;4971127;28;20366;-63
2022/11/03 13:01:08;;;;;;;13.57;7.70;;;;;;;;;;4974374;28;20856;-64
2022/11/03 13:03:36;;;;;;;10.33;7.93;;;;;;;;;;4971639;28;20898;-62
2022/11/03 13:06:08;;;;;;;9.30;7.30;;;;;;;;;;4964538;28;20314;-63
2022/11/03 13:08:36;;;;;;;9.83;6.80;;;;;;;;;;4968797;28;20211;-63
2022/11/03 13:12:29;;;;;;;12.63;8.07;;;;;;;;;;4971683;28;20458;-64
2022/11/03 13:13:51;;;;;;;10.93;8.60;;;;;;;;;;4998143;28;20282;-63
2022/11/03 13:16:18;;;;;;;12.70;8.80;;;;;;;;;;4985165;28;20288;-63
2022/11/03 13:18:46;;;;;;;9.30;7.80;;;;;;;;;;5001795;28;20207;-63
2022/11/03 13:21:13;;;;;;;10.37;7.60;;;;;;;;;;4978111;28;21117;-63
2022/11/03 13:23:41;;;;;;;11.30;8.73;;;;;;;;;;4997340;28;20745;-63
2022/11/03 13:26:09;;;;;;;9.53;7.20;;;;;;;;;;4973055;28;20760;-63
2022/11/03 13:28:36;;;;;;;12.07;7.60;;;;;;;;;;4970525;28;20293;-64
2022/11/03 13:31:04;;;;;;;14.33;8.40;;;;;;;;;;4973674;28;20258;-62
2022/11/03 13:33:31;;;;;;;12.90;8.77;;;;;;;;;;4970976;28;20211;-63
2022/11/03 13:35:59;;;;;;;12.33;9.13;;;;;;;;;;4966339;28;21787;-64
2022/11/03 13:38:26;;;;;;;11.93;9.07;;;;;;;;;;4970137;28;20735;-63
2022/11/03 13:40:53;;;;;;;9.17;7.83;;;;;;;;;;4975504;28;20235;-64
2022/11/03 13:43:24;;;;;;;8.87;7.27;;;;;;;;;;4975687;28;20757;-63
2022/11/03 13:45:51;;;;;;;10.70;8.43;;;;;;;;;;4967802;28;20659;-63
2022/11/03 13:48:19;;;;;;;11.03;8.80;;;;;;;;;;4971129;28;20199;-63
2022/11/03 13:51:09;;;;;;;10.70;8.40;;;;;;;;;;4969557;28;20232;-63
2022/11/03 13:53:37;;;;;;;11.37;8.77;;;;;;;;;;4974049;28;20220;-63
2022/11/03 13:56:24;;;;;;;16.63;9.13;;;;;;;;;;4972086;28;20258;-62
2022/11/03 13:58:52;;;;;;;13.50;9.50;;;;;;;;;;4965454;28;20801;-64
2022/11/03 14:01:39;;;;;;;15.67;9.70;;;;;;;;;;4978205;28;20214;-63
2022/11/03 14:04:08;;;;;;;12.50;9.13;;;;;;;;;;4973146;28;20298;-64
2022/11/03 14:06:55;;;;;;;10.67;9.57;;;;;;;;;;4971628;28;20215;-64
2022/11/03 14:09:22;;;;;;;17.50;12.43;;;;;;;;;;4973016;28;20760;-64
2022/11/03 14:14:36;;;;;;;15.60;10.97;;;;;;;;;;4991526;28;20298;-63
2022/11/03 14:17:04;;;;;;;13.67;10.10;;;;;;;;;;4974197;28;20216;-63
2022/11/03 14:19:31;;;;;;;11.07;9.60;;;;;;;;;;4975539;28;20246;-62
2022/11/03 14:22:09;;;;;;;13.30;9.80;;;;;;;;;;4966236;28;20556;-63
2022/11/03 14:24:36;;;;;;;14.43;10.33;;;;;;;;;;4964640;28;20745;-64
2022/11/03 14:27:03;;;;;;;11.10;9.90;;;;;;;;;;4968176;28;20239;-63
2022/11/03 14:29:31;;;;;;;15.63;10.50;;;;;;;;;;4979004;28;20334;-64
2022/11/03 14:31:58;;;;;;;20.00;11.57;;;;;;;;;;4964553;28;20222;-64
2022/11/03 14:34:26;;;;;;;20.57;11.30;;;;;;;;;;4968855;28;20215;-64
2022/11/03 14:36:53;;;;;;;14.20;11.30;;;;;;;;;;4973462;28;20250;-63
2022/11/03 14:39:20;;;;;;;12.47;10.50;;;;;;;;;;4987533;28;20229;-64
2022/11/03 14:42:02;;;;;;;14.20;11.47;;;;;;;;;;4976820;28;20218;-63
2022/11/03 14:44:31;;;;;;;12.87;11.30;;;;;;;;;;4976003;28;20207;-64
2022/11/03 14:47:00;;;;;;;13.90;12.07;;;;;;;;;;4987444;28;20723;-62
2022/11/03 14:49:28;;;;;;;14.83;12.97;;;;;;;;;;4984919;28;20270;-62
2022/11/03 14:51:56;;;;;;;18.50;13.87;;;;;;;;;;4986895;28;20210;-63
2022/11/03 14:54:23;;;;;;;19.17;14.83;;;;;;;;;;4982243;28;20207;-63
2022/11/03 14:56:52;;;;;;;16.83;14.17;;;;;;;;;;4973498;28;20242;-63
2022/11/03 14:59:20;;;;;;;19.90;15.77;;;;;;;;;;4965232;28;20312;-64
2022/11/03 15:01:48;;;;;;;20.07;15.23;;;;;;;;;;4971975;28;20285;-64
2022/11/03 15:04:15;;;;;;;21.70;16.57;;;;;;;;;;4973081;28;20316;-63
2022/11/03 15:06:43;;;;;;;21.07;15.87;;;;;;;;;;4965994;28;20247;-63
2022/11/03 15:09:13;;;;;;;21.20;16.57;;;;;;;;;;4968470;28;20219;-63
2022/11/03 15:11:41;;;;;;;23.97;17.20;;;;;;;;;;4965627;28;20276;-64